createdAt,value
2023-01-26T00:01:20.150Z,92.84
2023-01-26T00:03:46.910Z,93.03
2023-01-26T00:06:15.131Z,93.23
2023-01-26T00:08:49.451Z,93.07
2023-01-26T00:11:23.759Z,92.81
2023-01-26T00:13:50.532Z,92.74
2023-01-26T00:16:17.162Z,92.49
2023-01-26T00:18:44.296Z,92.70
2023-01-26T00:21:13.849Z,92.70
2023-01-26T00:23:40.468Z,92.39
2023-01-26T00:26:08.295Z,92.66
2023-01-26T00:28:36.039Z,92.48
2023-01-26T00:31:06.937Z,92.81
2023-01-26T00:33:34.644Z,93.01
2023-01-26T00:36:01.312Z,92.91
2023-01-26T00:38:28.164Z,93.16
2023-01-26T00:40:59.306Z,92.63
2023-01-26T00:43:26.116Z,92.52
2023-01-26T00:45:52.749Z,92.13
2023-01-26T00:48:24.528Z,91.82
2023-01-26T00:50:52.465Z,92.18
2023-01-26T00:53:19.203Z,92.48
2023-01-26T00:55:45.818Z,92.58
2023-01-26T00:58:12.555Z,92.80
2023-01-26T01:00:39.445Z,92.43
2023-01-26T01:03:06.503Z,92.34
2023-01-26T01:05:33.998Z,92.20
2023-01-26T04:50:30.404Z,99.84
2023-01-26T04:52:57.237Z,98.74
2023-01-26T04:55:26.066Z,98.95
2023-01-26T04:57:52.843Z,98.98
2023-01-26T05:00:20.110Z,98.00
2023-01-26T05:02:47.933Z,97.74
2023-01-26T05:05:14.840Z,98.05
2023-01-26T05:07:43.352Z,97.68
2023-01-26T05:10:12.588Z,97.48
2023-01-26T05:12:54.581Z,96.94
2023-01-26T05:15:43.043Z,97.31
2023-01-26T05:18:36.180Z,97.76
2023-01-26T05:21:12.290Z,97.24
2023-01-26T05:23:42.705Z,96.94
2023-01-26T05:26:21.936Z,96.97
2023-01-26T05:28:57.072Z,96.68
2023-01-26T05:31:23.884Z,96.97
2023-01-26T05:33:50.571Z,96.78
2023-01-26T05:36:21.690Z,96.42
2023-01-26T05:38:48.925Z,95.96
2023-01-26T05:41:22.201Z,95.81
2023-01-26T05:44:01.012Z,95.92
2023-01-26T05:46:36.570Z,95.59
2023-01-26T05:49:03.498Z,95.91
2023-01-26T05:51:30.189Z,96.19
2023-01-26T05:53:56.864Z,96.37
2023-01-26T05:56:25.162Z,95.86
2023-01-26T05:58:57.504Z,95.54
2023-01-26T06:01:24.235Z,95.47
2023-01-26T06:03:55.585Z,95.08
2023-01-26T06:06:22.818Z,95.14
2023-01-26T06:08:57.995Z,95.26
2023-01-26T06:11:33.675Z,95.32
2023-01-26T06:14:20.756Z,95.26
2023-01-26T06:16:48.143Z,95.49
2023-01-26T06:19:17.222Z,95.39
2023-01-26T06:21:47.520Z,94.86
2023-01-26T06:24:14.494Z,94.84
2023-01-26T06:26:41.190Z,94.93
2023-01-26T06:29:08.984Z,95.29
2023-01-26T06:31:36.728Z,95.41
2023-01-26T06:34:05.184Z,95.55
2023-01-26T06:36:33.360Z,95.65
2023-01-26T06:39:01.073Z,95.71
2023-01-26T06:41:28.403Z,95.96
2023-01-26T06:43:56.530Z,96.33
2023-01-26T06:46:23.613Z,96.43
2023-01-26T06:48:52.732Z,96.53
2023-01-26T06:51:19.524Z,96.78
2023-01-26T06:53:53.981Z,97.08
2023-01-26T06:56:41.230Z,97.40
2023-01-26T06:59:28.751Z,97.69
2023-01-26T07:02:25.722Z,98.10
2023-01-26T07:04:52.670Z,98.21
2023-01-26T07:07:20.125Z,98.17
2023-01-26T07:10:07.047Z,97.99
2023-01-26T07:12:43.764Z,98.60
2023-01-26T07:15:11.289Z,98.99
2023-01-26T07:17:39.461Z,99.45
2023-01-26T07:20:06.615Z,99.74
2023-01-26T07:22:33.323Z,99.99
2023-01-26T07:25:05.779Z,99.93
2023-01-26T07:27:34.080Z,99.84
2023-01-26T07:30:02.001Z,99.99
2023-01-26T07:32:28.735Z,100.00
2023-01-26T07:34:55.364Z,100.00
2023-01-26T07:37:21.899Z,100.00
2023-01-26T07:39:49.515Z,100.00
2023-01-26T07:42:16.192Z,100.00
2023-01-26T07:44:48.410Z,100.00
2023-01-26T07:47:19.515Z,100.00
2023-01-26T07:49:46.655Z,100.00
2023-01-26T07:52:13.368Z,100.00
2023-01-26T07:54:39.954Z,100.00
2023-01-26T07:57:07.656Z,100.00
2023-01-26T07:59:34.643Z,100.00
2023-01-26T08:02:01.447Z,100.00
2023-01-26T08:04:29.619Z,100.00
2023-01-26T08:06:56.413Z,100.00
2023-01-26T08:09:24.261Z,100.00
2023-01-26T08:11:51.485Z,100.00
2023-01-26T08:14:18.045Z,100.00
2023-01-26T08:16:45.805Z,100.00
2023-01-26T08:19:12.708Z,100.00
2023-01-26T08:21:39.413Z,100.00
2023-01-26T08:24:06.408Z,100.00
2023-01-26T08:26:33.224Z,100.00
2023-01-26T08:28:59.926Z,100.00
2023-01-26T08:31:27.839Z,100.00
2023-01-26T08:33:55.760Z,100.00
2023-01-26T08:36:23.010Z,100.00
2023-01-26T08:38:50.745Z,100.00
2023-01-26T08:41:17.849Z,100.00
2023-01-26T08:43:44.593Z,100.00
2023-01-26T08:46:11.276Z,100.00
2023-01-26T08:48:38.097Z,99.99
2023-01-26T08:51:05.590Z,99.91
2023-01-26T08:53:33.071Z,99.86
2023-01-26T08:56:05.289Z,99.51
2023-01-26T08:58:33.135Z,98.96
2023-01-26T09:01:03.781Z,98.59
2023-01-26T09:03:30.571Z,98.43
2023-01-26T09:05:59.766Z,98.13
2023-01-26T09:08:26.866Z,98.16
2023-01-26T09:10:53.498Z,98.00
2023-01-26T09:13:20.091Z,97.70
2023-01-26T09:16:08.076Z,97.31
2023-01-26T09:18:35.606Z,97.35
2023-01-26T09:21:04.833Z,96.91
2023-01-26T09:23:32.736Z,96.71
2023-01-26T09:25:59.612Z,96.47
2023-01-26T09:28:27.105Z,96.60
2023-01-26T09:30:53.921Z,96.08
2023-01-26T09:33:22.329Z,95.18
2023-01-26T09:35:49.461Z,94.44
2023-01-26T09:38:16.466Z,94.44
2023-01-26T09:41:06.288Z,94.45
2023-01-26T09:43:53.491Z,94.30
2023-01-26T09:46:21.646Z,93.77
2023-01-26T09:48:54.120Z,92.28
2023-01-26T09:51:46.546Z,91.08
2023-01-26T09:54:21.265Z,88.35
2023-01-26T09:56:48.330Z,86.10
2023-01-26T09:59:42.612Z,84.32
2023-01-26T10:02:15.230Z,83.80
2023-01-26T10:04:42.938Z,84.20
2023-01-26T10:07:11.140Z,84.45
2023-01-26T10:09:50.383Z,82.65
2023-01-26T10:12:23.267Z,81.40
2023-01-26T10:15:10.086Z,80.61
2023-01-26T10:17:40.375Z,79.55
2023-01-26T10:20:42.492Z,78.62
2023-01-26T10:23:16.098Z,76.70
2023-01-26T10:25:43.841Z,73.32
2023-01-26T10:28:19.787Z,69.67
2023-01-26T10:30:47.505Z,67.79
2023-01-26T10:33:27.903Z,67.44
2023-01-26T10:35:55.203Z,67.06
2023-01-26T10:38:37.316Z,67.33
2023-01-26T10:41:17.927Z,67.30
2023-01-26T10:44:02.279Z,67.62
2023-01-26T10:46:37.465Z,67.13
2023-01-26T10:49:18.045Z,67.29
2023-01-26T10:51:46.698Z,67.30
2023-01-26T10:54:22.638Z,67.22
2023-01-26T10:56:59.984Z,67.12
2023-01-26T10:59:45.541Z,66.96
2023-01-26T11:02:15.388Z,67.01
2023-01-26T11:05:11.323Z,66.81
2023-01-26T11:07:40.242Z,67.60
2023-01-26T11:10:19.527Z,68.12
2023-01-26T11:12:46.805Z,68.24
2023-01-26T11:15:16.558Z,68.02
2023-01-26T13:33:56.811Z,78.95
2023-01-26T13:36:23.679Z,78.60
2023-01-26T13:39:16.500Z,78.33
2023-01-26T13:41:47.055Z,78.71
2023-01-26T13:44:17.155Z,78.89
2023-01-26T13:47:01.517Z,79.38
2023-01-26T13:49:38.330Z,79.65
2023-01-26T13:52:31.516Z,80.18
2023-01-26T13:54:58.491Z,81.08
2023-01-26T13:57:29.300Z,81.57
2023-01-26T14:00:00.515Z,81.67
2023-01-26T14:02:28.405Z,82.21
2023-01-26T14:04:57.385Z,82.88
2023-01-26T14:07:42.160Z,83.04
2023-01-26T14:10:16.277Z,83.70
2023-01-26T14:12:46.765Z,84.36
2023-01-26T14:15:25.603Z,85.16
2023-01-26T14:17:58.015Z,85.39
2023-01-26T14:20:32.937Z,85.73
2023-01-26T14:23:14.408Z,86.32
2023-01-26T14:25:41.999Z,86.62
2023-01-26T14:28:15.863Z,87.04
2023-01-26T14:30:42.556Z,87.45
2023-01-26T14:33:13.520Z,87.97
2023-01-26T14:35:41.187Z,88.29
2023-01-26T14:38:11.367Z,88.64
2023-01-26T14:40:54.490Z,88.96
2023-01-26T14:43:21.436Z,89.10
2023-01-26T14:45:54.369Z,89.26
2023-01-26T14:48:23.144Z,89.35
2023-01-26T14:50:49.733Z,89.66
2023-01-26T14:53:21.074Z,89.94
2023-01-26T14:55:48.648Z,90.13
2023-01-26T14:58:23.936Z,90.38
2023-01-26T15:00:50.869Z,90.67
2023-01-26T15:03:25.429Z,90.75
2023-01-26T15:06:14.728Z,90.97
2023-01-26T15:08:42.083Z,91.09
2023-01-26T15:11:27.832Z,91.42
2023-01-26T15:13:55.193Z,91.74
2023-01-26T15:16:25.768Z,91.53
2023-01-26T15:18:59.961Z,92.00
2023-01-26T15:21:34.006Z,91.94
2023-01-26T15:24:00.884Z,92.08
2023-01-26T15:26:32.320Z,92.13
2023-01-26T15:29:00.506Z,91.80
2023-01-26T15:31:37.373Z,91.91
2023-01-26T15:34:04.824Z,92.19
2023-01-26T15:36:35.280Z,92.10
2023-01-26T15:39:03.828Z,91.95
2023-01-26T15:41:30.868Z,92.00
2023-01-26T15:43:57.713Z,92.05
2023-01-26T15:46:25.092Z,91.86
2023-01-26T15:48:52.210Z,91.97
2023-01-26T15:51:18.996Z,92.17
2023-01-26T15:53:45.601Z,92.43
2023-01-26T15:56:13.063Z,92.51
2023-01-26T15:58:40.253Z,92.33
2023-01-26T16:01:08.268Z,92.41
2023-01-26T16:03:35.983Z,92.22
2023-01-26T16:06:02.669Z,92.14
2023-01-26T16:08:29.534Z,92.53
2023-01-26T16:10:56.295Z,92.55
2023-01-26T16:13:23.076Z,92.63
2023-01-26T16:15:53.216Z,92.74
2023-01-26T16:18:20.001Z,92.46
2023-01-26T16:20:48.196Z,92.63
2023-01-26T16:23:20.924Z,92.66
2023-01-26T16:25:50.276Z,92.69
2023-01-26T16:28:18.262Z,92.66
2023-01-26T16:30:45.911Z,92.79
2023-01-26T16:33:17.504Z,92.68
2023-01-26T16:35:44.779Z,92.65
2023-01-26T16:38:12.760Z,92.43
2023-01-26T16:40:40.307Z,92.48
2023-01-26T16:43:14.132Z,92.41
2023-01-26T16:45:40.897Z,92.66
2023-01-26T16:48:14.570Z,92.74
2023-01-26T16:50:42.093Z,93.13
2023-01-26T16:53:30.138Z,93.18
2023-01-26T16:55:56.739Z,92.95
2023-01-26T16:58:25.860Z,92.95
2023-01-26T17:00:53.913Z,92.63
2023-01-26T17:03:20.685Z,92.60
2023-01-26T17:05:51.755Z,92.73
2023-01-26T17:08:19.804Z,92.82
2023-01-26T17:11:01.166Z,93.00
2023-01-26T17:13:29.366Z,93.18
2023-01-26T17:15:56.409Z,92.91
2023-01-26T17:18:23.193Z,92.86
2023-01-26T17:20:50.155Z,93.23
2023-01-26T17:23:18.203Z,93.06
2023-01-26T17:25:45.812Z,92.98
2023-01-26T17:28:12.640Z,93.33
2023-01-26T17:30:41.249Z,93.48
2023-01-26T17:33:07.891Z,93.72
2023-01-26T17:35:34.854Z,93.72
2023-01-26T17:38:01.432Z,93.53
2023-01-26T17:40:28.504Z,93.47
2023-01-26T17:42:55.186Z,93.42
2023-01-26T17:45:22.806Z,93.52
2023-01-26T17:47:49.478Z,94.03
2023-01-26T17:50:16.708Z,94.28
2023-01-26T17:52:43.366Z,94.42
2023-01-26T17:55:10.281Z,94.19
2023-01-26T17:57:37.378Z,94.59
2023-01-26T18:00:05.687Z,94.49
2023-01-26T18:02:38.907Z,94.46
2023-01-26T18:05:06.551Z,94.39
2023-01-26T18:07:33.528Z,94.38
2023-01-26T18:10:00.168Z,94.29
2023-01-26T18:12:26.912Z,94.45
2023-01-26T18:14:55.169Z,94.32
2023-01-26T18:17:22.085Z,94.30
2023-01-26T18:19:49.088Z,94.16
2023-01-26T18:22:15.689Z,94.19
2023-01-26T18:24:42.488Z,94.21
2023-01-26T18:27:10.458Z,94.26
2023-01-26T18:29:37.065Z,93.96
2023-01-26T18:32:03.990Z,94.25
2023-01-26T18:34:31.103Z,94.36
2023-01-26T18:36:58.612Z,94.01
2023-01-26T18:39:25.529Z,94.05
2023-01-26T18:41:52.797Z,94.16
2023-01-26T18:44:19.386Z,93.84
2023-01-26T18:46:46.947Z,93.83
2023-01-26T18:49:17.547Z,94.10
2023-01-26T18:51:47.491Z,93.80
2023-01-26T18:54:18.235Z,93.76
2023-01-26T18:56:45.437Z,93.73
2023-01-26T18:59:12.248Z,93.59
2023-01-26T19:01:39.346Z,93.52
2023-01-26T19:04:06.703Z,93.97
2023-01-26T19:06:35.711Z,94.16
2023-01-26T19:09:06.360Z,94.13
2023-01-26T19:11:35.287Z,93.87
2023-01-26T19:14:02.495Z,93.63
2023-01-26T19:16:29.485Z,93.64
2023-01-26T19:18:56.399Z,93.83
2023-01-26T19:21:23.767Z,93.41
2023-01-26T19:23:51.845Z,93.42
2023-01-26T19:26:20.274Z,93.61
2023-01-26T19:28:50.209Z,93.41
2023-01-26T19:31:18.771Z,93.62
2023-01-26T19:33:53.297Z,93.56
2023-01-26T19:36:20.666Z,93.41
2023-01-26T19:38:47.627Z,93.40
2023-01-26T19:41:14.798Z,93.13
2023-01-26T19:43:42.165Z,92.98
2023-01-26T19:46:11.104Z,93.17
2023-01-26T19:48:38.285Z,93.40
2023-01-26T19:51:19.248Z,93.30
2023-01-26T19:53:47.546Z,93.24
2023-01-26T19:56:16.511Z,93.44
2023-01-26T19:58:43.856Z,93.33
2023-01-26T20:01:11.449Z,93.38
2023-01-26T20:03:38.944Z,93.36
2023-01-26T20:06:06.521Z,93.31
2023-01-26T20:08:34.109Z,93.51
2023-01-26T20:11:07.881Z,93.66
2023-01-26T20:13:34.845Z,93.69
2023-01-26T20:16:02.074Z,93.71
2023-01-26T20:18:29.062Z,93.60
2023-01-26T20:20:56.305Z,93.74
2023-01-26T20:23:23.356Z,93.54
2023-01-26T20:25:53.715Z,93.41
2023-01-26T20:28:20.368Z,93.21
2023-01-26T20:30:46.971Z,93.47
2023-01-26T20:33:13.623Z,93.47
2023-01-26T20:35:42.106Z,93.47
2023-01-26T20:38:08.725Z,93.47
2023-01-26T20:40:35.408Z,93.46
2023-01-26T20:43:02.263Z,93.36
2023-01-26T20:45:29.211Z,93.15
2023-01-26T20:47:55.963Z,93.44
2023-01-26T20:50:24.018Z,93.64
2023-01-26T20:52:50.636Z,93.49
2023-01-26T20:55:17.323Z,93.72
2023-01-26T20:57:46.999Z,93.29
2023-01-26T21:00:14.476Z,93.05
2023-01-26T21:02:42.177Z,93.06
2023-01-26T21:05:09.203Z,93.16
2023-01-26T21:07:36.846Z,93.27
2023-01-26T21:10:04.279Z,93.58
2023-01-26T21:12:33.446Z,93.50
2023-01-26T21:15:00.093Z,93.66
2023-01-26T21:17:26.841Z,93.62
2023-01-26T21:19:53.589Z,93.78
2023-01-26T21:22:20.390Z,93.58
2023-01-26T21:24:47.896Z,93.81
2023-01-26T21:27:14.527Z,93.85
2023-01-26T21:29:41.722Z,94.03
2023-01-26T21:32:08.429Z,94.32
2023-01-26T21:34:35.061Z,94.22
2023-01-26T21:37:01.916Z,94.49
2023-01-26T21:39:29.149Z,94.44
2023-01-26T21:41:56.196Z,94.35
2023-01-26T21:44:29.828Z,94.44
2023-01-26T21:46:58.750Z,94.63
2023-01-26T21:49:25.698Z,94.56
2023-01-26T21:52:11.209Z,94.28
2023-01-26T21:54:38.419Z,94.58
2023-01-26T21:57:25.898Z,94.82
2023-01-26T21:59:57.056Z,95.18
2023-01-26T22:02:23.812Z,95.45
2023-01-26T22:04:50.636Z,95.02
2023-01-26T22:07:17.355Z,95.08
2023-01-26T22:09:44.404Z,95.15
2023-01-26T22:12:11.550Z,95.24
2023-01-26T22:14:38.380Z,95.36
2023-01-26T22:17:06.940Z,95.78
2023-01-26T22:19:34.268Z,95.89
2023-01-26T22:22:01.668Z,96.15
2023-01-26T22:24:28.451Z,96.04
2023-01-26T22:26:55.078Z,95.90
2023-01-26T22:29:23.642Z,95.93
2023-01-26T22:31:50.367Z,95.63
2023-01-26T22:34:17.072Z,95.75
2023-01-26T22:36:43.736Z,96.08
2023-01-26T22:39:11.601Z,95.81
2023-01-26T22:41:38.219Z,95.96
2023-01-26T22:44:06.406Z,95.96
2023-01-26T22:46:34.349Z,95.69
2023-01-26T22:49:02.596Z,95.22
2023-01-26T22:51:31.157Z,95.12
2023-01-26T22:53:58.207Z,95.55
2023-01-26T22:56:25.841Z,95.77
2023-01-26T22:58:58.529Z,95.68
2023-01-26T23:01:28.117Z,95.43
2023-01-26T23:03:55.469Z,95.32
2023-01-26T23:06:22.300Z,95.48
2023-01-26T23:08:49.174Z,95.48
2023-01-26T23:11:25.829Z,95.49
2023-01-26T23:13:53.338Z,95.15
2023-01-26T23:16:23.601Z,95.16
2023-01-26T23:18:51.561Z,95.06
2023-01-26T23:21:18.577Z,95.01
2023-01-26T23:23:45.170Z,95.09
2023-01-26T23:26:12.353Z,95.40
2023-01-26T23:28:40.415Z,95.59
2023-01-26T23:31:08.054Z,95.82
2023-01-26T23:33:35.110Z,95.74
2023-01-26T23:36:02.022Z,96.09
2023-01-26T23:38:29.946Z,96.49
2023-01-26T23:40:56.725Z,96.42
2023-01-26T23:43:23.787Z,96.35
2023-01-26T23:45:50.841Z,96.08
2023-01-26T23:48:18.269Z,96.02
2023-01-26T23:50:45.034Z,95.57
2023-01-26T23:53:12.484Z,95.50
2023-01-26T23:55:41.114Z,95.51
2023-01-26T23:58:08.185Z,95.40
